sensor_id;sensor_type;location;lat;lon;timestamp;P1;durP1;ratioP1;P2;durP2;ratioP2
39600;SDS011;25297;44.758;11.310;2023-04-03T00:01:04;17.27;;;11.75;;
39600;SDS011;25297;44.758;11.310;2023-04-03T00:03:31;14.98;;;11.23;;
39600;SDS011;25297;44.758;11.310;2023-04-03T00:05:57;15.18;;;10.65;;
39600;SDS011;25297;44.758;11.310;2023-04-03T00:08:23;20.27;;;12.23;;
39600;SDS011;25297;44.758;11.310;2023-04-03T00:10:48;21.00;;;11.82;;
39600;SDS011;25297;44.758;11.310;2023-04-03T00:13:15;16.45;;;12.00;;
39600;SDS011;25297;44.758;11.310;2023-04-03T00:15:41;20.20;;;12.07;;
39600;SDS011;25297;44.758;11.310;2023-04-03T00:18:07;18.10;;;11.73;;
39600;SDS011;25297;44.758;11.310;2023-04-03T00:20:33;14.95;;;11.32;;
39600;SDS011;25297;44.758;11.310;2023-04-03T00:22:59;17.13;;;11.23;;
39600;SDS011;25297;44.758;11.310;2023-04-03T00:25:26;16.05;;;11.95;;
39600;SDS011;25297;44.758;11.310;2023-04-03T00:27:51;15.63;;;11.80;;
39600;SDS011;25297;44.758;11.310;2023-04-03T00:30:18;15.40;;;10.38;;
39600;SDS011;25297;44.758;11.310;2023-04-03T00:32:47;13.43;;;11.25;;
39600;SDS011;25297;44.758;11.310;2023-04-03T00:35:13;17.70;;;11.93;;
39600;SDS011;25297;44.758;11.310;2023-04-03T00:37:41;15.68;;;10.85;;
39600;SDS011;25297;44.758;11.310;2023-04-03T00:40:07;13.98;;;10.75;;
39600;SDS011;25297;44.758;11.310;2023-04-03T00:42:35;17.17;;;11.25;;
39600;SDS011;25297;44.758;11.310;2023-04-03T00:47:27;13.02;;;10.02;;
39600;SDS011;25297;44.758;11.310;2023-04-03T00:49:54;13.68;;;10.73;;
39600;SDS011;25297;44.758;11.310;2023-04-03T00:52:21;12.50;;;9.90;;
39600;SDS011;25297;44.758;11.310;2023-04-03T00:54:50;13.15;;;9.35;;
39600;SDS011;25297;44.758;11.310;2023-04-03T00:57:19;15.18;;;10.20;;
39600;SDS011;25297;44.758;11.310;2023-04-03T00:59:49;13.35;;;10.10;;
39600;SDS011;25297;44.758;11.310;2023-04-03T01:02:19;13.65;;;9.80;;
39600;SDS011;25297;44.758;11.310;2023-04-03T01:04:45;12.02;;;9.75;;
39600;SDS011;25297;44.758;11.310;2023-04-03T01:07:13;14.75;;;9.15;;
39600;SDS011;25297;44.758;11.310;2023-04-03T01:09:42;12.20;;;9.30;;
39600;SDS011;25297;44.758;11.310;2023-04-03T01:12:18;11.13;;;8.98;;
39600;SDS011;25297;44.758;11.310;2023-04-03T01:14:46;14.30;;;9.77;;
39600;SDS011;25297;44.758;11.310;2023-04-03T01:25:26;13.32;;;9.48;;
39600;SDS011;25297;44.758;11.310;2023-04-03T01:27:52;16.50;;;10.20;;
39600;SDS011;25297;44.758;11.310;2023-04-03T01:30:19;15.25;;;10.82;;
39600;SDS011;25297;44.758;11.310;2023-04-03T01:32:46;13.00;;;8.80;;
39600;SDS011;25297;44.758;11.310;2023-04-03T01:35:12;14.07;;;9.40;;
39600;SDS011;25297;44.758;11.310;2023-04-03T01:37:38;12.07;;;9.60;;
39600;SDS011;25297;44.758;11.310;2023-04-03T01:40:04;14.50;;;10.02;;
39600;SDS011;25297;44.758;11.310;2023-04-03T01:42:30;16.00;;;8.52;;
39600;SDS011;25297;44.758;11.310;2023-04-03T01:44:56;14.32;;;9.85;;
39600;SDS011;25297;44.758;11.310;2023-04-03T01:47:21;12.43;;;9.45;;
39600;SDS011;25297;44.758;11.310;2023-04-03T01:49:47;12.43;;;9.90;;
39600;SDS011;25297;44.758;11.310;2023-04-03T01:52:13;13.40;;;9.52;;
39600;SDS011;25297;44.758;11.310;2023-04-03T01:54:38;11.40;;;9.30;;
39600;SDS011;25297;44.758;11.310;2023-04-03T01:57:04;11.95;;;8.45;;
39600;SDS011;25297;44.758;11.310;2023-04-03T01:59:30;12.50;;;9.10;;
39600;SDS011;25297;44.758;11.310;2023-04-03T02:01:56;13.27;;;9.25;;
39600;SDS011;25297;44.758;11.310;2023-04-03T02:04:21;14.07;;;10.48;;
39600;SDS011;25297;44.758;11.310;2023-04-03T02:06:47;12.30;;;9.25;;
39600;SDS011;25297;44.758;11.310;2023-04-03T02:09:13;11.77;;;9.35;;
39600;SDS011;25297;44.758;11.310;2023-04-03T02:11:39;15.52;;;10.55;;
39600;SDS011;25297;44.758;11.310;2023-04-03T02:14:05;12.63;;;9.68;;
39600;SDS011;25297;44.758;11.310;2023-04-03T02:16:31;17.25;;;9.73;;
39600;SDS011;25297;44.758;11.310;2023-04-03T02:18:56;10.90;;;8.85;;
39600;SDS011;25297;44.758;11.310;2023-04-03T02:21:22;15.05;;;9.52;;
39600;SDS011;25297;44.758;11.310;2023-04-03T02:23:48;15.85;;;10.27;;
39600;SDS011;25297;44.758;11.310;2023-04-03T02:26:14;15.20;;;8.95;;
39600;SDS011;25297;44.758;11.310;2023-04-03T02:28:41;13.15;;;9.35;;
39600;SDS011;25297;44.758;11.310;2023-04-03T02:31:07;13.75;;;10.07;;
39600;SDS011;25297;44.758;11.310;2023-04-03T02:33:34;13.15;;;9.57;;
39600;SDS011;25297;44.758;11.310;2023-04-03T02:36:01;12.00;;;9.52;;
39600;SDS011;25297;44.758;11.310;2023-04-03T02:38:28;16.25;;;10.10;;
39600;SDS011;25297;44.758;11.310;2023-04-03T02:40:59;13.70;;;9.82;;
39600;SDS011;25297;44.758;11.310;2023-04-03T02:43:28;13.80;;;9.73;;
39600;SDS011;25297;44.758;11.310;2023-04-03T02:45:54;13.30;;;9.73;;
39600;SDS011;25297;44.758;11.310;2023-04-03T02:48:20;13.70;;;9.32;;
39600;SDS011;25297;44.758;11.310;2023-04-03T02:50:45;11.68;;;9.60;;
39600;SDS011;25297;44.758;11.310;2023-04-03T02:53:11;14.85;;;10.18;;
39600;SDS011;25297;44.758;11.310;2023-04-03T02:55:37;14.52;;;9.43;;
39600;SDS011;25297;44.758;11.310;2023-04-03T02:58:02;16.73;;;9.07;;
39600;SDS011;25297;44.758;11.310;2023-04-03T03:00:28;13.57;;;9.57;;
39600;SDS011;25297;44.758;11.310;2023-04-03T03:02:54;14.32;;;9.55;;
39600;SDS011;25297;44.758;11.310;2023-04-03T03:05:20;11.25;;;9.13;;
39600;SDS011;25297;44.758;11.310;2023-04-03T03:07:46;12.68;;;8.75;;
39600;SDS011;25297;44.758;11.310;2023-04-03T03:10:14;11.80;;;9.27;;
39600;SDS011;25297;44.758;11.310;2023-04-03T03:12:39;10.68;;;8.52;;
39600;SDS011;25297;44.758;11.310;2023-04-03T03:15:05;11.73;;;8.98;;
39600;SDS011;25297;44.758;11.310;2023-04-03T03:17:32;15.38;;;9.00;;
39600;SDS011;25297;44.758;11.310;2023-04-03T03:19:57;10.93;;;9.10;;
39600;SDS011;25297;44.758;11.310;2023-04-03T03:22:23;11.23;;;9.32;;
39600;SDS011;25297;44.758;11.310;2023-04-03T03:24:49;17.13;;;9.95;;
39600;SDS011;25297;44.758;11.310;2023-04-03T03:27:14;12.23;;;8.80;;
39600;SDS011;25297;44.758;11.310;2023-04-03T03:29:41;13.02;;;9.50;;
39600;SDS011;25297;44.758;11.310;2023-04-03T03:32:07;12.52;;;9.68;;
39600;SDS011;25297;44.758;11.310;2023-04-03T03:34:33;12.60;;;9.85;;
39600;SDS011;25297;44.758;11.310;2023-04-03T03:36:58;13.55;;;10.13;;
39600;SDS011;25297;44.758;11.310;2023-04-03T03:39:24;13.88;;;9.48;;
39600;SDS011;25297;44.758;11.310;2023-04-03T03:41:50;12.77;;;9.60;;
39600;SDS011;25297;44.758;11.310;2023-04-03T03:44:18;12.68;;;8.93;;
39600;SDS011;25297;44.758;11.310;2023-04-03T03:46:44;13.30;;;9.60;;
39600;SDS011;25297;44.758;11.310;2023-04-03T03:49:10;12.85;;;9.90;;
39600;SDS011;25297;44.758;11.310;2023-04-03T03:51:36;11.95;;;8.65;;
39600;SDS011;25297;44.758;11.310;2023-04-03T03:54:02;11.73;;;9.30;;
39600;SDS011;25297;44.758;11.310;2023-04-03T03:56:29;12.95;;;9.80;;
39600;SDS011;25297;44.758;11.310;2023-04-03T03:58:54;13.50;;;9.68;;
39600;SDS011;25297;44.758;11.310;2023-04-03T04:01:21;13.90;;;9.43;;
39600;SDS011;25297;44.758;11.310;2023-04-03T04:03:48;10.65;;;9.10;;
39600;SDS011;25297;44.758;11.310;2023-04-03T04:06:14;12.50;;;8.93;;
39600;SDS011;25297;44.758;11.310;2023-04-03T04:08:40;11.00;;;9.13;;
39600;SDS011;25297;44.758;11.310;2023-04-03T04:11:06;11.23;;;9.18;;
39600;SDS011;25297;44.758;11.310;2023-04-03T04:13:32;11.88;;;9.68;;
39600;SDS011;25297;44.758;11.310;2023-04-03T04:15:58;11.98;;;9.57;;
39600;SDS011;25297;44.758;11.310;2023-04-03T04:18:24;10.32;;;7.57;;
39600;SDS011;25297;44.758;11.310;2023-04-03T04:20:50;13.82;;;9.10;;
39600;SDS011;25297;44.758;11.310;2023-04-03T04:23:16;12.27;;;8.73;;
39600;SDS011;25297;44.758;11.310;2023-04-03T04:25:46;12.20;;;8.93;;
39600;SDS011;25297;44.758;11.310;2023-04-03T04:28:13;13.10;;;8.30;;
39600;SDS011;25297;44.758;11.310;2023-04-03T04:30:39;16.15;;;8.93;;
39600;SDS011;25297;44.758;11.310;2023-04-03T04:33:04;13.40;;;8.52;;
39600;SDS011;25297;44.758;11.310;2023-04-03T04:35:30;11.43;;;9.57;;
39600;SDS011;25297;44.758;11.310;2023-04-03T04:37:56;10.60;;;8.13;;
39600;SDS011;25297;44.758;11.310;2023-04-03T04:40:22;12.20;;;7.78;;
39600;SDS011;25297;44.758;11.310;2023-04-03T04:42:47;8.52;;;7.35;;
39600;SDS011;25297;44.758;11.310;2023-04-03T04:45:13;13.60;;;8.82;;
39600;SDS011;25297;44.758;11.310;2023-04-03T04:47:40;11.68;;;8.32;;
39600;SDS011;25297;44.758;11.310;2023-04-03T04:50:06;10.88;;;8.05;;
39600;SDS011;25297;44.758;11.310;2023-04-03T04:52:32;12.02;;;9.20;;
39600;SDS011;25297;44.758;11.310;2023-04-03T04:54:57;10.27;;;8.23;;
39600;SDS011;25297;44.758;11.310;2023-04-03T04:57:23;17.83;;;8.93;;
39600;SDS011;25297;44.758;11.310;2023-04-03T04:59:48;11.48;;;8.18;;
39600;SDS011;25297;44.758;11.310;2023-04-03T05:02:14;13.80;;;8.10;;
39600;SDS011;25297;44.758;11.310;2023-04-03T05:04:40;13.52;;;8.82;;
39600;SDS011;25297;44.758;11.310;2023-04-03T05:07:06;13.88;;;8.02;;
39600;SDS011;25297;44.758;11.310;2023-04-03T05:09:31;11.10;;;7.40;;
39600;SDS011;25297;44.758;11.310;2023-04-03T05:11:57;11.65;;;7.55;;
39600;SDS011;25297;44.758;11.310;2023-04-03T05:14:23;14.70;;;8.80;;
39600;SDS011;25297;44.758;11.310;2023-04-03T05:16:48;11.80;;;9.15;;
39600;SDS011;25297;44.758;11.310;2023-04-03T05:19:17;12.43;;;8.90;;
39600;SDS011;25297;44.758;11.310;2023-04-03T05:21:44;13.55;;;8.43;;
39600;SDS011;25297;44.758;11.310;2023-04-03T05:24:09;12.57;;;7.78;;
39600;SDS011;25297;44.758;11.310;2023-04-03T05:26:35;13.10;;;8.73;;
39600;SDS011;25297;44.758;11.310;2023-04-03T05:29:00;11.60;;;9.00;;
39600;SDS011;25297;44.758;11.310;2023-04-03T05:31:27;14.90;;;10.13;;
39600;SDS011;25297;44.758;11.310;2023-04-03T05:33:54;13.07;;;9.18;;
39600;SDS011;25297;44.758;11.310;2023-04-03T05:36:20;17.98;;;11.27;;
39600;SDS011;25297;44.758;11.310;2023-04-03T05:38:47;12.63;;;10.48;;
39600;SDS011;25297;44.758;11.310;2023-04-03T05:41:13;18.50;;;11.73;;
39600;SDS011;25297;44.758;11.310;2023-04-03T05:43:40;15.27;;;11.00;;
39600;SDS011;25297;44.758;11.310;2023-04-03T05:46:12;14.18;;;10.73;;
39600;SDS011;25297;44.758;11.310;2023-04-03T05:48:39;18.38;;;11.18;;
39600;SDS011;25297;44.758;11.310;2023-04-03T05:51:05;15.68;;;10.93;;
39600;SDS011;25297;44.758;11.310;2023-04-03T05:53:33;15.35;;;12.13;;
39600;SDS011;25297;44.758;11.310;2023-04-03T05:56:04;17.25;;;11.52;;
39600;SDS011;25297;44.758;11.310;2023-04-03T05:58:30;18.13;;;11.32;;
39600;SDS011;25297;44.758;11.310;2023-04-03T06:00:55;14.73;;;11.63;;
39600;SDS011;25297;44.758;11.310;2023-04-03T06:03:22;17.67;;;12.95;;
39600;SDS011;25297;44.758;11.310;2023-04-03T06:05:47;24.27;;;12.73;;
39600;SDS011;25297;44.758;11.310;2023-04-03T06:08:13;15.13;;;11.63;;
39600;SDS011;25297;44.758;11.310;2023-04-03T06:10:39;14.98;;;12.05;;
39600;SDS011;25297;44.758;11.310;2023-04-03T06:13:05;19.73;;;11.93;;
39600;SDS011;25297;44.758;11.310;2023-04-03T06:15:31;17.30;;;12.07;;
39600;SDS011;25297;44.758;11.310;2023-04-03T06:17:56;16.20;;;12.32;;
39600;SDS011;25297;44.758;11.310;2023-04-03T06:20:22;17.58;;;12.88;;
39600;SDS011;25297;44.758;11.310;2023-04-03T06:22:48;15.20;;;12.05;;
39600;SDS011;25297;44.758;11.310;2023-04-03T06:25:14;18.05;;;11.75;;
39600;SDS011;25297;44.758;11.310;2023-04-03T06:27:42;16.08;;;11.55;;
39600;SDS011;25297;44.758;11.310;2023-04-03T06:30:08;16.38;;;11.65;;
39600;SDS011;25297;44.758;11.310;2023-04-03T06:32:33;15.07;;;11.52;;
39600;SDS011;25297;44.758;11.310;2023-04-03T06:34:59;13.93;;;11.45;;
39600;SDS011;25297;44.758;11.310;2023-04-03T06:37:25;17.58;;;11.65;;
39600;SDS011;25297;44.758;11.310;2023-04-03T06:39:53;18.67;;;11.90;;
39600;SDS011;25297;44.758;11.310;2023-04-03T06:42:18;16.00;;;11.25;;
39600;SDS011;25297;44.758;11.310;2023-04-03T06:44:44;21.27;;;12.75;;
39600;SDS011;25297;44.758;11.310;2023-04-03T06:47:11;18.95;;;12.35;;
39600;SDS011;25297;44.758;11.310;2023-04-03T06:49:38;17.10;;;12.43;;
39600;SDS011;25297;44.758;11.310;2023-04-03T06:52:04;17.45;;;13.40;;
39600;SDS011;25297;44.758;11.310;2023-04-03T06:54:30;17.83;;;12.20;;
39600;SDS011;25297;44.758;11.310;2023-04-03T06:56:57;15.82;;;11.85;;
39600;SDS011;25297;44.758;11.310;2023-04-03T06:59:22;16.58;;;11.70;;
39600;SDS011;25297;44.758;11.310;2023-04-03T07:01:48;18.70;;;11.15;;
39600;SDS011;25297;44.758;11.310;2023-04-03T07:04:14;16.02;;;11.13;;
39600;SDS011;25297;44.758;11.310;2023-04-03T07:06:40;19.35;;;11.52;;
39600;SDS011;25297;44.758;11.310;2023-04-03T07:09:07;17.27;;;9.50;;
39600;SDS011;25297;44.758;11.310;2023-04-03T07:11:32;8.55;;;6.82;;
39600;SDS011;25297;44.758;11.310;2023-04-03T07:13:58;10.05;;;6.43;;
39600;SDS011;25297;44.758;11.310;2023-04-03T07:16:24;11.57;;;6.60;;
39600;SDS011;25297;44.758;11.310;2023-04-03T07:18:50;9.10;;;6.43;;
39600;SDS011;25297;44.758;11.310;2023-04-03T07:21:16;7.78;;;5.75;;
39600;SDS011;25297;44.758;11.310;2023-04-03T07:23:41;6.57;;;5.70;;
39600;SDS011;25297;44.758;11.310;2023-04-03T07:26:07;10.55;;;6.18;;
39600;SDS011;25297;44.758;11.310;2023-04-03T07:28:34;10.43;;;6.05;;
39600;SDS011;25297;44.758;11.310;2023-04-03T07:31:05;7.15;;;5.30;;
39600;SDS011;25297;44.758;11.310;2023-04-03T07:33:33;8.60;;;5.93;;
39600;SDS011;25297;44.758;11.310;2023-04-03T07:36:00;11.13;;;5.65;;
39600;SDS011;25297;44.758;11.310;2023-04-03T07:38:26;12.27;;;6.22;;
39600;SDS011;25297;44.758;11.310;2023-04-03T07:40:52;8.50;;;5.70;;
39600;SDS011;25297;44.758;11.310;2023-04-03T07:43:18;7.90;;;5.78;;
39600;SDS011;25297;44.758;11.310;2023-04-03T07:45:45;11.25;;;5.45;;
39600;SDS011;25297;44.758;11.310;2023-04-03T07:48:14;9.10;;;5.72;;
39600;SDS011;25297;44.758;11.310;2023-04-03T07:50:45;6.75;;;4.78;;
39600;SDS011;25297;44.758;11.310;2023-04-03T07:53:11;8.40;;;4.72;;
39600;SDS011;25297;44.758;11.310;2023-04-03T07:55:37;7.95;;;4.75;;
39600;SDS011;25297;44.758;11.310;2023-04-03T07:58:08;7.88;;;4.25;;
39600;SDS011;25297;44.758;11.310;2023-04-03T08:00:39;6.43;;;4.07;;
39600;SDS011;25297;44.758;11.310;2023-04-03T08:03:06;7.70;;;4.28;;
39600;SDS011;25297;44.758;11.310;2023-04-03T08:05:37;5.75;;;4.10;;
39600;SDS011;25297;44.758;11.310;2023-04-03T08:08:07;10.93;;;3.85;;
39600;SDS011;25297;44.758;11.310;2023-04-03T08:10:33;5.90;;;3.70;;
39600;SDS011;25297;44.758;11.310;2023-04-03T08:12:59;10.57;;;4.03;;
39600;SDS011;25297;44.758;11.310;2023-04-03T08:15:26;6.18;;;3.28;;
39600;SDS011;25297;44.758;11.310;2023-04-03T08:17:52;8.38;;;3.53;;
39600;SDS011;25297;44.758;11.310;2023-04-03T08:20:18;6.15;;;3.58;;
39600;SDS011;25297;44.758;11.310;2023-04-03T08:22:44;7.38;;;3.33;;
39600;SDS011;25297;44.758;11.310;2023-04-03T08:25:10;6.65;;;3.42;;
39600;SDS011;25297;44.758;11.310;2023-04-03T08:27:35;9.60;;;4.05;;
39600;SDS011;25297;44.758;11.310;2023-04-03T08:30:02;12.02;;;4.07;;
39600;SDS011;25297;44.758;11.310;2023-04-03T08:32:29;7.95;;;3.60;;
39600;SDS011;25297;44.758;11.310;2023-04-03T08:34:54;7.20;;;2.78;;
39600;SDS011;25297;44.758;11.310;2023-04-03T08:37:20;5.20;;;2.85;;
39600;SDS011;25297;44.758;11.310;2023-04-03T08:39:46;4.57;;;2.40;;
39600;SDS011;25297;44.758;11.310;2023-04-03T08:50:48;3.45;;;1.58;;
39600;SDS011;25297;44.758;11.310;2023-04-03T08:53:18;4.10;;;1.58;;
39600;SDS011;25297;44.758;11.310;2023-04-03T08:55:47;3.10;;;1.20;;
39600;SDS011;25297;44.758;11.310;2023-04-03T09:03:23;3.45;;;1.40;;
39600;SDS011;25297;44.758;11.310;2023-04-03T09:08:24;2.10;;;0.70;;
39600;SDS011;25297;44.758;11.310;2023-04-03T09:13:57;0.98;;;0.70;;
39600;SDS011;25297;44.758;11.310;2023-04-03T09:19:07;4.65;;;0.98;;
39600;SDS011;25297;44.758;11.310;2023-04-03T09:21:38;5.15;;;1.20;;
39600;SDS011;25297;44.758;11.310;2023-04-03T09:24:07;2.58;;;0.70;;
39600;SDS011;25297;44.758;11.310;2023-04-03T09:29:22;3.88;;;1.20;;
39600;SDS011;25297;44.758;11.310;2023-04-03T09:31:50;2.03;;;0.80;;
39600;SDS011;25297;44.758;11.310;2023-04-03T09:34:40;4.38;;;1.00;;
39600;SDS011;25297;44.758;11.310;2023-04-03T09:37:06;1.25;;;0.90;;
39600;SDS011;25297;44.758;11.310;2023-04-03T09:39:49;2.70;;;0.90;;
39600;SDS011;25297;44.758;11.310;2023-04-03T09:42:19;2.47;;;1.17;;
39600;SDS011;25297;44.758;11.310;2023-04-03T09:47:33;1.88;;;0.70;;
39600;SDS011;25297;44.758;11.310;2023-04-03T09:52:44;5.45;;;0.70;;
39600;SDS011;25297;44.758;11.310;2023-04-03T09:57:42;2.60;;;0.88;;
39600;SDS011;25297;44.758;11.310;2023-04-03T10:00:23;2.75;;;1.20;;
39600;SDS011;25297;44.758;11.310;2023-04-03T10:02:53;4.67;;;0.80;;
39600;SDS011;25297;44.758;11.310;2023-04-03T10:08:09;5.03;;;0.75;;
39600;SDS011;25297;44.758;11.310;2023-04-03T10:10:35;3.28;;;0.93;;
39600;SDS011;25297;44.758;11.310;2023-04-03T10:13:20;17.45;;;2.40;;
39600;SDS011;25297;44.758;11.310;2023-04-03T10:16:07;5.03;;;1.15;;
39600;SDS011;25297;44.758;11.310;2023-04-03T10:24:02;5.60;;;1.17;;
39600;SDS011;25297;44.758;11.310;2023-04-03T10:35:25;7.70;;;3.30;;
39600;SDS011;25297;44.758;11.310;2023-04-03T10:40:47;7.80;;;3.60;;
39600;SDS011;25297;44.758;11.310;2023-04-03T10:46:14;11.07;;;3.45;;
39600;SDS011;25297;44.758;11.310;2023-04-03T10:52:00;5.47;;;3.35;;
39600;SDS011;25297;44.758;11.310;2023-04-03T10:57:26;5.43;;;2.75;;
39600;SDS011;25297;44.758;11.310;2023-04-03T10:59:58;5.93;;;2.20;;
39600;SDS011;25297;44.758;11.310;2023-04-03T11:11:15;6.63;;;1.55;;
39600;SDS011;25297;44.758;11.310;2023-04-03T11:14:29;3.30;;;1.17;;
39600;SDS011;25297;44.758;11.310;2023-04-03T11:19:57;2.78;;;1.45;;
39600;SDS011;25297;44.758;11.310;2023-04-03T11:22:41;5.40;;;1.73;;
39600;SDS011;25297;44.758;11.310;2023-04-03T11:27:43;6.75;;;1.50;;
39600;SDS011;25297;44.758;11.310;2023-04-03T11:30:26;4.85;;;1.77;;
39600;SDS011;25297;44.758;11.310;2023-04-03T11:35:55;6.03;;;1.42;;
39600;SDS011;25297;44.758;11.310;2023-04-03T11:38:29;5.32;;;1.60;;
39600;SDS011;25297;44.758;11.310;2023-04-03T11:41:01;2.40;;;1.40;;
39600;SDS011;25297;44.758;11.310;2023-04-03T11:43:31;5.00;;;1.70;;
39600;SDS011;25297;44.758;11.310;2023-04-03T11:46:05;8.70;;;2.15;;
39600;SDS011;25297;44.758;11.310;2023-04-03T11:53:39;7.35;;;1.58;;
39600;SDS011;25297;44.758;11.310;2023-04-03T12:04:24;8.43;;;2.83;;
39600;SDS011;25297;44.758;11.310;2023-04-03T12:06:53;6.00;;;1.48;;
39600;SDS011;25297;44.758;11.310;2023-04-03T12:12:49;5.32;;;1.52;;
39600;SDS011;25297;44.758;11.310;2023-04-03T12:17:46;7.18;;;1.77;;
39600;SDS011;25297;44.758;11.310;2023-04-03T12:23:26;3.35;;;1.10;;
39600;SDS011;25297;44.758;11.310;2023-04-03T12:26:00;2.00;;;0.80;;
39600;SDS011;25297;44.758;11.310;2023-04-03T12:28:30;1.60;;;0.70;;
39600;SDS011;25297;44.758;11.310;2023-04-03T12:31:02;2.90;;;0.80;;
39600;SDS011;25297;44.758;11.310;2023-04-03T12:42:32;1.88;;;0.80;;
39600;SDS011;25297;44.758;11.310;2023-04-03T12:45:22;3.85;;;0.73;;
39600;SDS011;25297;44.758;11.310;2023-04-03T12:47:49;5.65;;;0.80;;
39600;SDS011;25297;44.758;11.310;2023-04-03T12:50:27;3.78;;;0.82;;
39600;SDS011;25297;44.758;11.310;2023-04-03T12:53:05;3.75;;;0.77;;
39600;SDS011;25297;44.758;11.310;2023-04-03T12:58:22;4.05;;;0.75;;
39600;SDS011;25297;44.758;11.310;2023-04-03T13:00:59;1.52;;;0.70;;
39600;SDS011;25297;44.758;11.310;2023-04-03T13:03:29;0.97;;;0.63;;
39600;SDS011;25297;44.758;11.310;2023-04-03T13:05:57;1.92;;;1.10;;
39600;SDS011;25297;44.758;11.310;2023-04-03T13:08:25;2.05;;;1.00;;
39600;SDS011;25297;44.758;11.310;2023-04-03T13:13:19;1.50;;;0.77;;
39600;SDS011;25297;44.758;11.310;2023-04-03T13:15:47;3.55;;;0.88;;
39600;SDS011;25297;44.758;11.310;2023-04-03T13:18:47;2.55;;;0.90;;
39600;SDS011;25297;44.758;11.310;2023-04-03T13:23:38;6.65;;;0.90;;
39600;SDS011;25297;44.758;11.310;2023-04-03T13:26:08;5.13;;;0.95;;
39600;SDS011;25297;44.758;11.310;2023-04-03T13:28:34;4.47;;;1.02;;
39600;SDS011;25297;44.758;11.310;2023-04-03T13:33:28;2.13;;;0.60;;
39600;SDS011;25297;44.758;11.310;2023-04-03T13:35:58;4.63;;;1.52;;
39600;SDS011;25297;44.758;11.310;2023-04-03T13:38:30;7.03;;;1.10;;
39600;SDS011;25297;44.758;11.310;2023-04-03T13:40:59;2.40;;;0.80;;
39600;SDS011;25297;44.758;11.310;2023-04-03T13:43:28;1.85;;;0.80;;
39600;SDS011;25297;44.758;11.310;2023-04-03T13:46:04;1.77;;;1.00;;
39600;SDS011;25297;44.758;11.310;2023-04-03T13:48:38;3.33;;;0.85;;
39600;SDS011;25297;44.758;11.310;2023-04-03T13:56:19;3.92;;;0.75;;
39600;SDS011;25297;44.758;11.310;2023-04-03T14:04:19;3.50;;;1.00;;
39600;SDS011;25297;44.758;11.310;2023-04-03T14:06:51;3.97;;;0.75;;
39600;SDS011;25297;44.758;11.310;2023-04-03T14:09:17;2.97;;;0.95;;
39600;SDS011;25297;44.758;11.310;2023-04-03T14:11:44;3.10;;;0.70;;
39600;SDS011;25297;44.758;11.310;2023-04-03T14:14:13;3.42;;;1.10;;
39600;SDS011;25297;44.758;11.310;2023-04-03T14:16:42;4.50;;;0.98;;
39600;SDS011;25297;44.758;11.310;2023-04-03T14:19:23;5.00;;;0.90;;
39600;SDS011;25297;44.758;11.310;2023-04-03T14:21:55;4.38;;;0.93;;
39600;SDS011;25297;44.758;11.310;2023-04-03T14:24:21;5.55;;;1.55;;
39600;SDS011;25297;44.758;11.310;2023-04-03T14:26:48;5.22;;;0.90;;
39600;SDS011;25297;44.758;11.310;2023-04-03T14:29:15;3.10;;;1.05;;
39600;SDS011;25297;44.758;11.310;2023-04-03T14:31:42;11.65;;;0.93;;
39600;SDS011;25297;44.758;11.310;2023-04-03T14:34:10;5.25;;;1.35;;
39600;SDS011;25297;44.758;11.310;2023-04-03T14:36:37;3.10;;;0.93;;
39600;SDS011;25297;44.758;11.310;2023-04-03T14:39:05;71.25;;;4.22;;
39600;SDS011;25297;44.758;11.310;2023-04-03T14:41:32;4.30;;;0.77;;
39600;SDS011;25297;44.758;11.310;2023-04-03T14:43:58;0.70;;;0.30;;
39600;SDS011;25297;44.758;11.310;2023-04-03T14:46:38;2.25;;;0.20;;
39600;SDS011;25297;44.758;11.310;2023-04-03T14:49:15;1.38;;;0.50;;
39600;SDS011;25297;44.758;11.310;2023-04-03T14:51:45;1.15;;;0.50;;
39600;SDS011;25297;44.758;11.310;2023-04-03T14:54:13;1.20;;;0.50;;
39600;SDS011;25297;44.758;11.310;2023-04-03T14:56:41;1.93;;;0.50;;
39600;SDS011;25297;44.758;11.310;2023-04-03T14:59:13;1.33;;;0.65;;
39600;SDS011;25297;44.758;11.310;2023-04-03T15:01:40;0.57;;;0.25;;
39600;SDS011;25297;44.758;11.310;2023-04-03T15:04:10;0.95;;;0.30;;
39600;SDS011;25297;44.758;11.310;2023-04-03T15:06:38;1.13;;;0.40;;
39600;SDS011;25297;44.758;11.310;2023-04-03T15:09:03;0.90;;;0.47;;
39600;SDS011;25297;44.758;11.310;2023-04-03T15:11:29;1.75;;;0.45;;
39600;SDS011;25297;44.758;11.310;2023-04-03T15:13:55;1.05;;;0.60;;
39600;SDS011;25297;44.758;11.310;2023-04-03T15:16:20;0.73;;;0.40;;
39600;SDS011;25297;44.758;11.310;2023-04-03T15:18:46;1.38;;;0.40;;
39600;SDS011;25297;44.758;11.310;2023-04-03T15:21:12;1.38;;;0.50;;
39600;SDS011;25297;44.758;11.310;2023-04-03T15:23:38;0.30;;;0.30;;
39600;SDS011;25297;44.758;11.310;2023-04-03T15:26:04;1.65;;;0.30;;
39600;SDS011;25297;44.758;11.310;2023-04-03T15:28:31;0.85;;;0.40;;
39600;SDS011;25297;44.758;11.310;2023-04-03T15:31:00;1.27;;;0.30;;
39600;SDS011;25297;44.758;11.310;2023-04-03T15:33:26;1.55;;;0.20;;
39600;SDS011;25297;44.758;11.310;2023-04-03T15:35:52;0.77;;;0.30;;
39600;SDS011;25297;44.758;11.310;2023-04-03T15:38:18;0.63;;;0.30;;
39600;SDS011;25297;44.758;11.310;2023-04-03T15:40:44;0.30;;;0.28;;
39600;SDS011;25297;44.758;11.310;2023-04-03T15:43:11;1.73;;;0.38;;
39600;SDS011;25297;44.758;11.310;2023-04-03T15:45:37;0.52;;;0.40;;
39600;SDS011;25297;44.758;11.310;2023-04-03T15:48:04;0.60;;;0.40;;
39600;SDS011;25297;44.758;11.310;2023-04-03T15:50:31;0.63;;;0.40;;
39600;SDS011;25297;44.758;11.310;2023-04-03T15:52:58;0.63;;;0.30;;
39600;SDS011;25297;44.758;11.310;2023-04-03T15:55:24;1.70;;;0.40;;
39600;SDS011;25297;44.758;11.310;2023-04-03T15:57:51;1.58;;;0.50;;
39600;SDS011;25297;44.758;11.310;2023-04-03T16:00:18;0.95;;;0.38;;
39600;SDS011;25297;44.758;11.310;2023-04-03T16:02:45;0.20;;;0.20;;
39600;SDS011;25297;44.758;11.310;2023-04-03T16:05:12;0.52;;;0.47;;
39600;SDS011;25297;44.758;11.310;2023-04-03T16:07:40;0.22;;;0.22;;
39600;SDS011;25297;44.758;11.310;2023-04-03T16:10:06;2.67;;;0.45;;
39600;SDS011;25297;44.758;11.310;2023-04-03T16:12:33;1.20;;;0.30;;
39600;SDS011;25297;44.758;11.310;2023-04-03T16:14:59;0.68;;;0.32;;
39600;SDS011;25297;44.758;11.310;2023-04-03T16:17:26;3.55;;;0.40;;
39600;SDS011;25297;44.758;11.310;2023-04-03T16:19:52;0.50;;;0.50;;
39600;SDS011;25297;44.758;11.310;2023-04-03T16:22:20;0.40;;;0.40;;
39600;SDS011;25297;44.758;11.310;2023-04-03T16:24:46;0.28;;;0.20;;
39600;SDS011;25297;44.758;11.310;2023-04-03T16:27:12;2.28;;;0.30;;
39600;SDS011;25297;44.758;11.310;2023-04-03T16:29:37;1.02;;;0.20;;
39600;SDS011;25297;44.758;11.310;2023-04-03T16:32:03;1.08;;;0.38;;
39600;SDS011;25297;44.758;11.310;2023-04-03T16:34:30;0.50;;;0.40;;
39600;SDS011;25297;44.758;11.310;2023-04-03T16:36:57;1.48;;;0.55;;
39600;SDS011;25297;44.758;11.310;2023-04-03T16:39:23;0.32;;;0.30;;
39600;SDS011;25297;44.758;11.310;2023-04-03T16:41:48;1.35;;;0.60;;
39600;SDS011;25297;44.758;11.310;2023-04-03T16:44:14;3.90;;;0.82;;
39600;SDS011;25297;44.758;11.310;2023-04-03T16:46:40;2.08;;;0.57;;
39600;SDS011;25297;44.758;11.310;2023-04-03T16:49:05;5.15;;;0.60;;
39600;SDS011;25297;44.758;11.310;2023-04-03T16:51:31;2.22;;;0.50;;